createdAt,value
2023-06-30T00:00:13.608Z,4.75
2023-06-30T00:02:42.035Z,5.43
2023-06-30T00:05:10.294Z,4.95
2023-06-30T00:07:38.235Z,4.53
2023-06-30T00:10:06.476Z,4.90
2023-06-30T00:12:33.588Z,5.15
2023-06-30T00:15:01.539Z,4.63
2023-06-30T00:17:28.671Z,5.15
2023-06-30T00:20:00.110Z,4.55
2023-06-30T00:22:27.120Z,5.05
2023-06-30T00:24:59.447Z,4.75
2023-06-30T00:27:26.262Z,5.10
2023-06-30T00:29:53.059Z,4.90
2023-06-30T00:32:20.637Z,4.55
2023-06-30T00:34:47.938Z,5.05
2023-06-30T00:37:14.694Z,4.50
2023-06-30T00:39:41.467Z,4.60
2023-06-30T00:42:09.361Z,4.63
2023-06-30T00:44:36.383Z,4.20
2023-06-30T00:47:03.486Z,4.57
2023-06-30T00:49:32.106Z,4.63
2023-06-30T00:52:00.051Z,4.70
2023-06-30T00:54:27.066Z,4.90
2023-06-30T00:56:53.861Z,5.00
2023-06-30T00:59:20.642Z,4.95
2023-06-30T01:01:55.518Z,5.18
2023-06-30T01:05:07.460Z,5.93
2023-06-30T01:07:56.633Z,4.50
2023-06-30T01:10:25.706Z,4.78
2023-06-30T01:12:53.717Z,5.00
2023-06-30T01:15:21.319Z,5.20
2023-06-30T01:18:00.824Z,4.82
2023-06-30T01:20:34.007Z,5.47
2023-06-30T01:23:27.066Z,5.13
2023-06-30T01:25:54.514Z,5.18
2023-06-30T01:28:21.567Z,5.40
2023-06-30T01:30:51.340Z,5.40
2023-06-30T01:33:18.404Z,5.25
2023-06-30T01:35:46.657Z,5.30
2023-06-30T01:38:16.069Z,5.05
2023-06-30T01:40:42.909Z,5.40
2023-06-30T01:43:09.897Z,5.22
2023-06-30T01:45:36.976Z,5.43
2023-06-30T01:48:04.300Z,5.88
2023-06-30T01:50:32.958Z,5.50
2023-06-30T01:53:00.834Z,5.32
2023-06-30T01:55:28.894Z,5.18
2023-06-30T01:57:56.478Z,5.47
2023-06-30T02:00:23.320Z,5.50
2023-06-30T02:02:50.238Z,6.07
2023-06-30T02:05:17.190Z,5.50
2023-06-30T02:07:44.136Z,5.53
2023-06-30T02:10:11.252Z,5.50
2023-06-30T02:12:38.457Z,5.72
2023-06-30T02:15:05.796Z,5.53
2023-06-30T02:17:33.987Z,5.55
2023-06-30T02:20:01.543Z,6.10
2023-06-30T02:22:28.875Z,6.10
2023-06-30T02:24:57.281Z,5.80
2023-06-30T02:27:25.242Z,5.60
2023-06-30T02:29:52.703Z,6.10
2023-06-30T02:32:22.245Z,5.72
2023-06-30T02:34:49.121Z,6.05
2023-06-30T02:37:16.578Z,5.72
2023-06-30T02:39:43.666Z,5.60
2023-06-30T02:42:10.914Z,5.90
2023-06-30T02:44:37.815Z,5.60
2023-06-30T02:47:05.118Z,5.97
2023-06-30T02:49:34.034Z,5.85
2023-06-30T02:52:01.164Z,6.57
2023-06-30T02:54:28.031Z,6.25
2023-06-30T02:56:54.848Z,6.03
2023-06-30T02:59:21.676Z,6.05
2023-06-30T03:01:48.952Z,6.20
2023-06-30T03:04:15.890Z,6.07
2023-06-30T03:06:42.829Z,5.97
2023-06-30T03:09:09.663Z,5.78
2023-06-30T03:11:36.783Z,6.03
2023-06-30T03:14:03.740Z,6.00
2023-06-30T03:16:30.684Z,6.95
2023-06-30T03:18:57.668Z,6.28
2023-06-30T03:21:24.433Z,6.22
2023-06-30T03:23:51.273Z,6.60
2023-06-30T03:26:18.191Z,6.90
2023-06-30T03:28:44.983Z,6.93
2023-06-30T03:31:11.749Z,6.40
2023-06-30T03:33:38.529Z,6.82
2023-06-30T03:36:05.606Z,6.60
2023-06-30T03:38:32.454Z,6.55
2023-06-30T03:40:59.359Z,6.40
2023-06-30T03:43:26.142Z,6.20
2023-06-30T03:45:52.956Z,5.85
2023-06-30T03:48:21.541Z,6.30
2023-06-30T03:50:49.455Z,6.10
2023-06-30T03:53:16.245Z,6.78
2023-06-30T03:55:43.452Z,6.45
2023-06-30T03:58:10.402Z,7.15
2023-06-30T04:00:37.324Z,6.47
2023-06-30T04:05:30.875Z,7.38
2023-06-30T04:07:57.742Z,6.53
2023-06-30T04:10:24.947Z,6.65
2023-06-30T04:12:51.752Z,6.00
2023-06-30T04:15:18.642Z,7.28
2023-06-30T04:17:45.503Z,7.03
2023-06-30T04:20:15.906Z,7.20
2023-06-30T04:22:42.902Z,7.72
2023-06-30T04:25:09.916Z,8.43
2023-06-30T04:27:36.828Z,7.28
2023-06-30T04:30:04.676Z,6.90
2023-06-30T04:32:31.662Z,7.65
2023-06-30T04:35:01.493Z,8.60
2023-06-30T04:37:31.249Z,7.72
2023-06-30T04:39:59.469Z,7.95
2023-06-30T04:42:29.493Z,8.27
2023-06-30T04:44:56.697Z,8.00
2023-06-30T04:47:23.571Z,8.52
2023-06-30T04:49:50.402Z,8.68
2023-06-30T04:52:17.226Z,8.65
2023-06-30T04:54:44.925Z,8.90
2023-06-30T04:57:11.804Z,8.77
2023-06-30T04:59:38.829Z,9.07
2023-06-30T05:02:05.963Z,9.00
2023-06-30T05:04:33.050Z,9.77
2023-06-30T05:07:00.040Z,9.63
2023-06-30T05:09:26.855Z,8.38
2023-06-30T05:11:53.719Z,8.82
2023-06-30T05:14:21.170Z,8.93
2023-06-30T05:16:48.159Z,9.18
2023-06-30T05:19:15.175Z,10.00
2023-06-30T05:21:41.945Z,10.32
2023-06-30T05:24:08.750Z,11.07
2023-06-30T05:26:35.607Z,10.73
2023-06-30T05:29:05.239Z,9.40
2023-06-30T05:31:32.730Z,9.57
2023-06-30T05:33:59.912Z,10.65
2023-06-30T05:36:26.688Z,9.23
2023-06-30T05:38:53.464Z,9.40
2023-06-30T05:41:20.310Z,9.43
2023-06-30T05:43:47.135Z,9.30
2023-06-30T05:46:13.996Z,8.23
2023-06-30T05:48:40.814Z,9.30
2023-06-30T05:51:07.630Z,9.23
2023-06-30T05:53:34.448Z,9.02
2023-06-30T05:56:01.316Z,9.57
2023-06-30T05:58:28.420Z,9.48
2023-06-30T06:00:55.197Z,8.70
2023-06-30T06:03:22.316Z,8.43
2023-06-30T06:05:50.000Z,9.13
2023-06-30T06:08:17.096Z,9.98
2023-06-30T06:10:45.759Z,9.85
2023-06-30T06:13:12.631Z,12.32
2023-06-30T06:15:39.539Z,12.05
2023-06-30T06:18:06.514Z,12.48
2023-06-30T06:20:33.288Z,12.40
2023-06-30T06:23:00.064Z,13.52
2023-06-30T06:25:26.832Z,14.00
2023-06-30T06:27:53.627Z,13.88
2023-06-30T06:30:22.464Z,14.93
2023-06-30T06:32:49.295Z,12.43
2023-06-30T06:35:16.140Z,12.30
2023-06-30T06:37:42.986Z,12.70
2023-06-30T06:40:10.750Z,14.73
2023-06-30T06:42:37.512Z,13.88
2023-06-30T06:45:04.689Z,12.02
2023-06-30T06:48:09.333Z,11.88
2023-06-30T06:50:36.095Z,11.57
2023-06-30T06:53:02.858Z,10.25
2023-06-30T06:55:29.635Z,8.95
2023-06-30T06:57:56.388Z,9.27
2023-06-30T07:00:23.443Z,8.40
2023-06-30T07:02:50.460Z,9.20
2023-06-30T07:05:17.297Z,6.80
2023-06-30T07:07:44.441Z,8.30
2023-06-30T07:10:11.486Z,7.85
2023-06-30T07:12:38.483Z,7.43
2023-06-30T07:15:06.470Z,7.30
2023-06-30T07:17:33.448Z,7.00
2023-06-30T07:20:00.690Z,7.47
2023-06-30T07:22:27.433Z,7.60
2023-06-30T07:24:54.236Z,7.72
2023-06-30T07:27:21.025Z,7.05
2023-06-30T07:29:50.589Z,7.78
2023-06-30T07:32:18.179Z,8.30
2023-06-30T07:34:45.034Z,7.78
2023-06-30T07:37:11.846Z,7.05
2023-06-30T07:39:38.730Z,7.78
2023-06-30T07:42:05.930Z,7.43
2023-06-30T07:44:34.017Z,7.60
2023-06-30T07:47:01.353Z,7.13
2023-06-30T07:49:28.419Z,7.40
2023-06-30T07:51:55.303Z,6.57
2023-06-30T07:54:22.173Z,7.20
2023-06-30T07:56:49.023Z,7.03
2023-06-30T07:59:16.097Z,6.75
2023-06-30T08:01:42.921Z,6.47
2023-06-30T08:04:10.108Z,5.70
2023-06-30T08:06:37.181Z,6.18
2023-06-30T08:09:06.984Z,5.97
2023-06-30T08:11:33.921Z,5.80
2023-06-30T08:14:03.096Z,5.85
2023-06-30T08:16:30.097Z,5.97
2023-06-30T08:18:57.231Z,6.03
2023-06-30T08:21:25.503Z,4.90
2023-06-30T08:23:52.645Z,5.43
2023-06-30T08:26:19.560Z,6.47
2023-06-30T08:28:46.374Z,6.32
2023-06-30T08:31:13.753Z,5.68
2023-06-30T08:33:41.343Z,4.68
2023-06-30T08:36:08.818Z,4.47
2023-06-30T08:38:35.730Z,5.00
2023-06-30T08:41:04.120Z,4.82
2023-06-30T08:43:32.984Z,5.50
2023-06-30T08:46:04.241Z,5.22
2023-06-30T08:48:32.625Z,5.10
2023-06-30T08:51:00.588Z,5.30
2023-06-30T08:53:32.004Z,5.40
2023-06-30T08:56:00.430Z,4.65
2023-06-30T08:58:28.412Z,5.05
2023-06-30T09:00:57.392Z,4.80
2023-06-30T09:03:25.122Z,4.93
2023-06-30T09:05:59.465Z,4.88
2023-06-30T09:08:48.820Z,5.15
2023-06-30T09:11:17.518Z,5.28
2023-06-30T09:13:46.141Z,5.18
2023-06-30T09:16:19.776Z,4.57
2023-06-30T09:18:48.039Z,6.10
2023-06-30T09:21:15.033Z,5.97
2023-06-30T09:23:42.475Z,6.38
2023-06-30T09:26:18.924Z,5.97
2023-06-30T09:28:46.681Z,6.43
2023-06-30T09:31:15.232Z,6.38
2023-06-30T09:33:43.319Z,6.30
2023-06-30T09:36:17.776Z,6.78
2023-06-30T09:38:44.549Z,6.82
2023-06-30T09:41:21.286Z,5.82
2023-06-30T09:43:49.541Z,6.03
2023-06-30T09:46:20.798Z,6.43
2023-06-30T09:48:47.663Z,6.53
2023-06-30T09:51:20.321Z,6.47
2023-06-30T09:53:47.129Z,6.68
2023-06-30T09:56:22.580Z,6.78
2023-06-30T09:58:51.497Z,6.05
2023-06-30T10:01:22.301Z,6.78
2023-06-30T10:03:51.276Z,7.28
2023-06-30T10:06:24.084Z,6.80
2023-06-30T10:08:54.809Z,6.40
2023-06-30T10:11:23.695Z,6.78
2023-06-30T10:13:53.487Z,6.30
2023-06-30T10:16:22.245Z,6.82
2023-06-30T10:18:53.487Z,6.28
2023-06-30T10:21:20.718Z,7.00
2023-06-30T10:23:50.345Z,6.00
2023-06-30T10:26:20.489Z,6.38
2023-06-30T10:28:48.907Z,6.20
2023-06-30T13:45:07.224Z,17.13
2023-06-30T13:47:38.555Z,18.92
2023-06-30T13:50:06.070Z,20.05
2023-06-30T13:52:33.841Z,19.35
2023-06-30T13:55:03.789Z,20.13
2023-06-30T13:57:30.688Z,18.15
2023-06-30T13:59:57.755Z,19.20
2023-06-30T14:02:24.523Z,18.30
2023-06-30T14:04:51.555Z,19.10
2023-06-30T14:07:18.360Z,19.15
2023-06-30T14:09:45.378Z,20.85
2023-06-30T14:12:12.202Z,19.45
2023-06-30T14:14:39.041Z,18.67
2023-06-30T14:17:06.345Z,17.70
2023-06-30T14:19:33.154Z,18.00
2023-06-30T14:21:59.949Z,18.80
2023-06-30T14:24:26.719Z,18.90
2023-06-30T14:26:53.668Z,20.08
2023-06-30T14:29:20.521Z,19.42
2023-06-30T14:31:48.128Z,19.15
2023-06-30T14:34:15.207Z,18.45
2023-06-30T14:36:42.212Z,19.02
2023-06-30T14:39:10.639Z,20.60
2023-06-30T14:41:40.042Z,18.40
2023-06-30T14:44:09.128Z,18.90
2023-06-30T14:46:35.992Z,20.02
2023-06-30T14:49:02.791Z,18.10
2023-06-30T14:51:29.704Z,18.52
2023-06-30T14:53:56.474Z,18.23
2023-06-30T14:56:23.481Z,18.65
2023-06-30T14:58:51.211Z,17.42
2023-06-30T15:01:18.770Z,18.70
2023-06-30T15:03:45.681Z,18.17
2023-06-30T15:06:12.552Z,17.25
2023-06-30T15:08:39.339Z,17.73
2023-06-30T15:11:06.277Z,17.33
2023-06-30T15:13:33.350Z,17.30
2023-06-30T15:16:00.214Z,18.13
2023-06-30T15:18:27.034Z,18.55
2023-06-30T15:20:53.871Z,18.23
2023-06-30T15:23:23.425Z,18.02
2023-06-30T15:25:50.319Z,18.90
2023-06-30T15:28:17.168Z,17.55
2023-06-30T15:30:47.122Z,17.83
2023-06-30T15:33:15.833Z,18.58
2023-06-30T15:35:42.755Z,19.60
2023-06-30T15:38:09.662Z,18.63
2023-06-30T15:40:36.662Z,19.50
2023-06-30T15:43:04.950Z,19.75
2023-06-30T15:45:32.240Z,20.52
2023-06-30T15:47:59.279Z,19.80
2023-06-30T15:50:26.239Z,21.98
2023-06-30T15:52:53.157Z,21.33
2023-06-30T15:55:20.896Z,21.13
2023-06-30T15:57:47.673Z,20.92
2023-06-30T16:00:15.571Z,22.55
2023-06-30T16:02:45.686Z,21.42
2023-06-30T16:05:12.889Z,23.15
2023-06-30T16:07:40.010Z,21.58
2023-06-30T16:10:07.146Z,21.25
2023-06-30T16:12:34.072Z,21.98
2023-06-30T16:15:01.399Z,21.10
2023-06-30T16:17:28.637Z,23.00
2023-06-30T16:19:55.484Z,22.75
2023-06-30T16:22:22.320Z,23.55
2023-06-30T16:24:49.581Z,24.17
2023-06-30T16:27:16.470Z,24.30
2023-06-30T16:29:43.325Z,25.45
2023-06-30T16:32:10.180Z,26.40
2023-06-30T16:34:38.344Z,28.77
2023-06-30T16:37:05.349Z,26.92
2023-06-30T16:39:32.405Z,27.38
2023-06-30T16:41:59.209Z,26.52
2023-06-30T16:44:30.419Z,27.70
2023-06-30T16:46:57.257Z,26.55
2023-06-30T16:49:24.111Z,27.15
2023-06-30T16:51:54.640Z,26.67
2023-06-30T16:54:21.624Z,27.52
2023-06-30T16:56:48.582Z,27.00
2023-06-30T16:59:15.988Z,26.92
2023-06-30T17:01:43.275Z,26.98
2023-06-30T17:04:10.401Z,27.88
2023-06-30T17:06:37.434Z,27.95
2023-06-30T17:09:06.701Z,27.05
2023-06-30T17:11:33.528Z,27.75
2023-06-30T17:14:01.846Z,27.25
2023-06-30T17:16:29.018Z,26.38
2023-06-30T17:18:56.227Z,21.27
2023-06-30T17:21:23.193Z,19.88
2023-06-30T17:23:49.993Z,19.77
2023-06-30T17:26:16.775Z,18.75
2023-06-30T17:28:43.656Z,18.55
2023-06-30T17:31:10.466Z,19.35
2023-06-30T17:33:39.838Z,18.42
2023-06-30T17:36:11.433Z,18.00
2023-06-30T17:38:38.983Z,19.20
2023-06-30T17:41:09.646Z,18.95
2023-06-30T17:43:39.273Z,17.67
2023-06-30T17:46:11.825Z,18.92
2023-06-30T17:48:38.703Z,19.00
2023-06-30T17:51:08.982Z,19.15
2023-06-30T17:53:39.275Z,20.00
2023-06-30T17:56:16.503Z,18.27
2023-06-30T17:58:43.326Z,17.80
2023-06-30T18:01:10.145Z,18.65
2023-06-30T18:03:37.549Z,18.98
2023-06-30T18:06:04.650Z,19.33
2023-06-30T18:08:31.488Z,18.30
2023-06-30T18:11:08.952Z,17.85
2023-06-30T18:13:39.212Z,18.85
2023-06-30T18:16:06.564Z,17.48
2023-06-30T18:18:36.228Z,20.73
2023-06-30T18:21:03.427Z,19.58
2023-06-30T18:23:30.572Z,18.77
2023-06-30T18:25:57.390Z,20.42
2023-06-30T18:28:25.266Z,18.40
2023-06-30T18:30:52.174Z,20.27
2023-06-30T18:33:18.941Z,20.73
2023-06-30T18:35:46.955Z,18.27
2023-06-30T18:38:13.934Z,19.13
2023-06-30T18:40:40.696Z,21.13
2023-06-30T18:43:07.582Z,20.92
2023-06-30T18:45:36.467Z,20.73
2023-06-30T18:48:03.450Z,21.05
2023-06-30T18:50:30.285Z,21.25
2023-06-30T18:52:57.122Z,21.30
2023-06-30T18:55:24.506Z,20.77
2023-06-30T18:57:51.360Z,20.75
2023-06-30T19:00:18.542Z,21.80
2023-06-30T19:02:45.475Z,19.98
2023-06-30T19:05:12.520Z,21.98
2023-06-30T19:07:39.557Z,21.42
2023-06-30T19:10:07.037Z,21.98
2023-06-30T19:12:33.840Z,21.13
2023-06-30T19:15:00.936Z,20.45
2023-06-30T19:17:27.915Z,21.38
2023-06-30T19:19:56.256Z,21.90
2023-06-30T19:22:23.183Z,20.73
2023-06-30T19:24:50.094Z,19.67
2023-06-30T19:27:17.198Z,20.65
2023-06-30T19:29:44.046Z,20.65
2023-06-30T19:32:11.687Z,21.27
2023-06-30T19:34:38.475Z,19.20
2023-06-30T19:37:05.557Z,21.02
2023-06-30T19:39:32.330Z,22.13
2023-06-30T19:41:59.178Z,21.25
2023-06-30T19:44:26.050Z,20.35
2023-06-30T19:46:53.916Z,21.98
2023-06-30T19:49:20.790Z,21.90
2023-06-30T19:51:47.595Z,22.08
2023-06-30T19:54:22.157Z,22.35
2023-06-30T19:56:52.931Z,21.42
2023-06-30T19:59:24.409Z,21.30
2023-06-30T20:01:56.264Z,21.98
2023-06-30T20:04:34.389Z,21.13
2023-06-30T20:07:10.016Z,21.73
2023-06-30T20:09:37.812Z,22.17
2023-06-30T20:12:08.337Z,21.80
2023-06-30T20:14:35.486Z,21.52
2023-06-30T20:17:04.438Z,20.40
2023-06-30T20:19:36.434Z,21.55
2023-06-30T20:22:07.201Z,21.65
2023-06-30T20:24:34.893Z,22.88
2023-06-30T20:27:05.549Z,21.83
2023-06-30T20:29:36.782Z,22.15
2023-06-30T20:32:05.019Z,21.98
2023-06-30T20:34:32.884Z,22.30
2023-06-30T20:37:00.254Z,22.13
2023-06-30T20:39:28.765Z,23.83
2023-06-30T20:41:56.048Z,22.83
2023-06-30T20:44:33.593Z,23.00
2023-06-30T20:47:04.865Z,22.77
2023-06-30T20:49:32.303Z,22.83
2023-06-30T20:51:59.225Z,22.58
2023-06-30T20:54:26.029Z,22.20
2023-06-30T20:57:04.842Z,21.75
2023-06-30T20:59:34.849Z,21.52
2023-06-30T21:02:03.302Z,22.20
2023-06-30T21:04:35.934Z,21.70
2023-06-30T21:07:18.908Z,22.73
2023-06-30T21:09:49.177Z,21.33
2023-06-30T21:12:18.056Z,21.90
2023-06-30T21:14:55.211Z,22.75
2023-06-30T21:17:26.087Z,22.15
2023-06-30T21:19:54.366Z,22.65
2023-06-30T21:22:26.370Z,24.10
2023-06-30T21:24:56.423Z,23.98
2023-06-30T21:27:24.419Z,25.35
2023-06-30T21:29:52.004Z,23.70
2023-06-30T21:32:19.358Z,24.27
2023-06-30T21:34:46.883Z,22.92
2023-06-30T21:37:14.824Z,22.80
2023-06-30T21:39:44.160Z,22.85
2023-06-30T21:42:13.402Z,22.77
2023-06-30T21:44:44.037Z,22.50
2023-06-30T21:47:11.191Z,21.58
2023-06-30T21:49:37.953Z,22.27
2023-06-30T21:52:05.202Z,22.10
2023-06-30T21:54:47.062Z,21.40
2023-06-30T21:57:15.238Z,19.65
2023-06-30T21:59:42.214Z,19.27
2023-06-30T22:02:10.062Z,19.50
2023-06-30T22:04:37.025Z,20.50
2023-06-30T22:07:04.154Z,19.05
2023-06-30T22:09:31.058Z,17.98
2023-06-30T22:11:57.828Z,17.55
2023-06-30T22:14:24.621Z,18.67
2023-06-30T22:16:54.065Z,17.83
2023-06-30T22:19:21.420Z,17.58
2023-06-30T22:21:48.227Z,18.83
2023-06-30T22:24:15.048Z,18.95
2023-06-30T22:26:41.885Z,16.50
2023-06-30T22:29:08.666Z,16.70
2023-06-30T22:31:35.508Z,16.42
2023-06-30T22:34:02.796Z,16.35
2023-06-30T22:36:29.574Z,15.45
2023-06-30T22:38:56.383Z,15.75
2023-06-30T22:41:23.566Z,15.40
2023-06-30T22:43:50.358Z,16.15
2023-06-30T22:46:17.159Z,16.55
2023-06-30T22:48:44.300Z,16.30
2023-06-30T22:51:11.085Z,16.38
2023-06-30T22:53:37.893Z,16.98
2023-06-30T22:56:07.344Z,17.27
2023-06-30T22:58:34.169Z,18.55
2023-06-30T23:01:01.087Z,18.85
2023-06-30T23:03:28.610Z,17.70
2023-06-30T23:05:55.469Z,17.13
2023-06-30T23:08:22.271Z,17.75
2023-06-30T23:10:49.421Z,17.77
2023-06-30T23:13:16.566Z,18.15
2023-06-30T23:15:43.473Z,17.20
2023-06-30T23:18:10.387Z,16.80
2023-06-30T23:20:37.277Z,16.92
2023-06-30T23:23:08.337Z,16.88
2023-06-30T23:25:38.482Z,17.40
2023-06-30T23:28:05.525Z,16.17
2023-06-30T23:30:34.619Z,16.45
2023-06-30T23:33:04.732Z,17.65
2023-06-30T23:35:32.226Z,17.20
2023-06-30T23:37:59.053Z,17.55
2023-06-30T23:40:25.861Z,16.83
2023-06-30T23:42:52.651Z,17.67
2023-06-30T23:45:20.235Z,17.02
2023-06-30T23:47:47.186Z,18.67
2023-06-30T23:50:14.028Z,17.92
2023-06-30T23:52:40.827Z,19.38
2023-06-30T23:55:07.881Z,19.23
2023-06-30T23:57:34.641Z,19.52
